Pagrindinis puslapis
METAR-TAF:

METAR-TAF

Oro uostai :

Sjenfuegosas, Kuba

platuma: 22-09N, ilguma: 080-24W, Aukštis: 39 m

Dabartinis oras

Ataskaita buvo paskelbta 37 minutes, ne 07:59 UTC
Vėjas 3 kt iš Rytų, svyruoja nuo Šiaurės Rytų ir Pietų/Pietryčių
Temperatūra 24°C
Drėgmė 100%
Slėgis 1015 hPa

METAR: MUCF 200759Z AUTO 09003KT 040V160 24/24 Q1015

Laikas: 04:36 (08:36 UTC)

Prognozė

Ataskaita buvo paskelbta 15 valandos ir 36 minutes, ne 17:00 UTC
Prognozė galioja nuo 19 metu 18 UTC su 20 metu 06 UTC
Vėjas 10 kt iš Pietvakarių
Matomumas: 9000 m
Išsisklaidę debesys ne aukštis 2000 ft
Laikinai
nuo 19 metu 20 UTC su 19 metu 24 UTC
Vėjas 10 kt nuo kintamojo kryptimis
Matomumas: 5000 m
Išsisklaidę debesys ne aukštis 1800 ft, Liūtiniai kamuoliniai debesys.
Su prošvaistėmis ne aukštis 2000 ft
lietus
Tapsmas
nuo 20 metu 01 UTC su 20 metu 03 UTC
Vėjas 3 kt nuo kintamojo kryptimis

TAF: MUCF 191700Z 1918/2006 22010KT 9000 SCT020 TEMPO 1920/1924 VRB10KT 5000 SHRA SCT018CB BKN020 BECMG 2001/2003 VRB03KT

Orai ataskaitas ir orų prognozės (METAR, TAF).

turimą stotys yra geltonos ir raudonos taškus žemėlapyje.

Perkelti pele per norėdami pamatyti stoties vardą.

Tada spustelėkite, norėdami matyti oro stebėjimo ir prognozės.

Norėdami pakeisti žemėlapį: spustelėkite ant žalios mygtukų su juodo kryžiaus žemyn,; žalią mygtuką su brūkšneliu, jei norite nutolinti; arba žalių rodyklių gretimoms žemėlapius.


METAR-TAF: